Looe, United Kingdom
Current Conditions -  °F | °C
As of 4:20 PM on Monday 24 Nov 2014 (Local Time) from EGHQ Reporting Station
Clear Clear  
Wind Chill: 41°   Ceiling: Unl
Heat Index: 45°   Visibility: 6mi
Dew Point: 34°   Wind: 6mph
Humidity: 66%   Direction: 60°ENE
Pressure: 30.3"   Gusts: NA
Location:  50.36°N, 4.45°W
Report Text: EGHQ 241620Z 06005KT CAVOK 07/01 Q1026
Loading
Personal Weather Stations






























Interactive Weather Map New forecast layout! Learn more

10-Day Weather Forecast

Advertisements
Track Severe Weather on mobile